createdAt,value
2017-10-18T00:00:08.708Z,0
2017-10-18T00:01:18.006Z,0
2017-10-18T00:02:27.204Z,0
2017-10-18T00:03:36.053Z,0
2017-10-18T00:04:44.903Z,0
2017-10-18T00:05:53.757Z,0
2017-10-18T00:07:02.852Z,0
2017-10-18T00:08:11.699Z,0
2017-10-18T00:09:20.546Z,0
2017-10-18T00:10:29.395Z,0
2017-10-18T00:11:38.242Z,0
2017-10-18T00:12:47.240Z,0
2017-10-18T00:13:56.090Z,0
2017-10-18T00:15:04.934Z,0
2017-10-18T00:16:13.783Z,0
2017-10-18T00:17:22.632Z,0
2017-10-18T00:18:31.881Z,0
2017-10-18T00:19:40.731Z,0
2017-10-18T00:20:49.579Z,0
2017-10-18T00:21:58.427Z,0
2017-10-18T00:23:07.273Z,0
2017-10-18T00:24:16.274Z,0
2017-10-18T00:25:25.122Z,0
2017-10-18T00:26:33.971Z,0
2017-10-18T00:27:42.821Z,0
2017-10-18T00:28:51.669Z,0
2017-10-18T00:30:00.766Z,0
2017-10-18T00:31:09.615Z,0
2017-10-18T00:32:18.460Z,0
2017-10-18T00:33:27.308Z,0
2017-10-18T00:34:36.151Z,0
2017-10-18T00:35:45.303Z,0
2017-10-18T00:36:54.150Z,0
2017-10-18T00:38:03.345Z,0
2017-10-18T00:39:12.195Z,0
2017-10-18T00:40:21.043Z,0
2017-10-18T00:41:30.093Z,0
2017-10-18T00:42:38.937Z,0
2017-10-18T00:43:47.784Z,0
2017-10-18T00:44:56.631Z,0
2017-10-18T00:46:05.479Z,0
2017-10-18T00:47:14.729Z,0
2017-10-18T00:48:23.584Z,0
2017-10-18T00:49:32.427Z,0
2017-10-18T00:50:41.275Z,0
2017-10-18T00:51:50.124Z,0
2017-10-18T00:52:59.171Z,0
2017-10-18T00:54:08.016Z,0
2017-10-18T00:55:16.867Z,0
2017-10-18T00:56:25.716Z,0
2017-10-18T00:57:34.562Z,0
2017-10-18T00:58:43.719Z,0
2017-10-18T00:59:52.567Z,0
2017-10-18T01:01:01.760Z,0
2017-10-18T01:02:10.610Z,0
2017-10-18T01:03:19.454Z,0
2017-10-18T01:04:28.643Z,0
2017-10-18T01:05:37.520Z,0
2017-10-18T01:06:46.716Z,0
2017-10-18T01:07:55.566Z,0
2017-10-18T01:09:04.417Z,0
2017-10-18T01:10:13.565Z,0
2017-10-18T01:11:22.413Z,0
2017-10-18T01:12:31.257Z,0
2017-10-18T01:13:40.103Z,0
2017-10-18T01:14:48.949Z,0
2017-10-18T01:15:57.795Z,0
2017-10-18T01:17:06.665Z,0
2017-10-18T01:18:15.490Z,0
2017-10-18T01:19:24.339Z,0
2017-10-18T01:20:33.193Z,0
2017-10-18T01:21:42.139Z,0
2017-10-18T01:22:50.988Z,0
2017-10-18T01:23:59.835Z,0
2017-10-18T01:25:08.683Z,0
2017-10-18T01:26:17.528Z,0
2017-10-18T01:27:26.786Z,0
2017-10-18T01:28:35.624Z,0
2017-10-18T01:29:44.469Z,0
2017-10-18T01:30:53.316Z,0
2017-10-18T01:32:02.165Z,0
2017-10-18T01:33:11.160Z,0
2017-10-18T01:34:20.011Z,0
2017-10-18T01:35:28.858Z,0
2017-10-18T01:36:37.707Z,0
2017-10-18T01:37:46.556Z,0
2017-10-18T01:38:56.007Z,0
2017-10-18T01:40:04.855Z,0
2017-10-18T01:41:13.706Z,0
2017-10-18T01:42:22.551Z,0
2017-10-18T01:43:31.400Z,0
2017-10-18T01:44:40.396Z,0
2017-10-18T01:45:49.587Z,0
2017-10-18T01:46:58.436Z,0
2017-10-18T01:48:07.283Z,0
2017-10-18T01:49:16.131Z,0
2017-10-18T01:50:25.128Z,0
2017-10-18T01:51:33.977Z,0
2017-10-18T01:52:43.183Z,0
2017-10-18T01:53:52.033Z,0
2017-10-18T01:55:00.881Z,0
2017-10-18T01:56:09.782Z,0
2017-10-18T01:57:18.631Z,0
2017-10-18T01:58:27.474Z,0
2017-10-18T01:59:36.319Z,0
2017-10-18T02:00:45.166Z,0
2017-10-18T02:01:54.163Z,0
2017-10-18T02:03:03.008Z,0
2017-10-18T02:04:11.857Z,0
2017-10-18T02:05:20.706Z,0
2017-10-18T02:06:29.550Z,0
2017-10-18T02:07:38.745Z,0
2017-10-18T02:08:47.598Z,0
2017-10-18T02:09:56.443Z,0
2017-10-18T02:11:05.291Z,0
2017-10-18T02:12:14.140Z,0
2017-10-18T02:13:23.289Z,0
2017-10-18T02:14:32.138Z,0
2017-10-18T02:15:40.985Z,0
2017-10-18T02:16:49.832Z,0
2017-10-18T02:17:59.034Z,0
2017-10-18T02:19:08.032Z,0
2017-10-18T02:20:16.887Z,0
2017-10-18T02:21:25.731Z,0
2017-10-18T02:22:34.579Z,0
2017-10-18T02:23:43.435Z,0
2017-10-18T02:24:52.482Z,0
2017-10-18T02:26:01.326Z,0
2017-10-18T02:27:10.175Z,0
2017-10-18T02:28:19.023Z,0
2017-10-18T02:29:27.872Z,0
2017-10-18T02:30:36.768Z,0
2017-10-18T02:31:45.614Z,0
2017-10-18T02:32:54.458Z,0
2017-10-18T02:34:03.661Z,0
2017-10-18T02:35:12.510Z,0
2017-10-18T02:36:21.456Z,0
2017-10-18T02:37:30.302Z,0
2017-10-18T02:38:39.152Z,0
2017-10-18T02:39:47.999Z,0
2017-10-18T02:40:57.195Z,0
2017-10-18T02:42:06.040Z,0
2017-10-18T02:43:14.895Z,0
2017-10-18T02:44:23.741Z,0
2017-10-18T02:45:32.590Z,0
2017-10-18T02:46:41.436Z,0
2017-10-18T02:47:50.433Z,0
2017-10-18T02:48:59.279Z,0
2017-10-18T02:50:08.126Z,0
2017-10-18T02:51:16.971Z,0
2017-10-18T02:52:25.821Z,0
2017-10-18T02:53:34.816Z,0
2017-10-18T02:54:43.666Z,0
2017-10-18T02:55:52.516Z,0
2017-10-18T02:57:01.358Z,0
2017-10-18T02:58:10.207Z,0
2017-10-18T02:59:19.153Z,0
2017-10-18T03:00:27.999Z,0
2017-10-18T03:01:36.846Z,0
2017-10-18T03:02:45.690Z,0
2017-10-18T03:03:54.541Z,0
2017-10-18T03:05:03.932Z,0
2017-10-18T03:06:12.777Z,0
2017-10-18T03:07:21.624Z,0
2017-10-18T03:08:30.473Z,0
2017-10-18T03:09:39.320Z,0
2017-10-18T03:10:48.269Z,0
2017-10-18T03:11:57.112Z,0
2017-10-18T03:13:05.959Z,0
2017-10-18T03:14:14.804Z,0
2017-10-18T03:15:23.651Z,0
2017-10-18T03:16:32.899Z,0
2017-10-18T03:17:41.749Z,0
2017-10-18T03:18:50.594Z,0
2017-10-18T03:19:59.789Z,0
2017-10-18T03:21:08.635Z,0
2017-10-18T03:22:17.629Z,0
2017-10-18T03:23:26.479Z,0
2017-10-18T03:24:35.332Z,0
2017-10-18T03:25:44.176Z,0
2017-10-18T03:26:53.023Z,0
2017-10-18T03:28:02.020Z,0
2017-10-18T03:29:10.866Z,0
2017-10-18T03:30:19.716Z,0
2017-10-18T03:31:28.561Z,0
2017-10-18T03:32:37.409Z,0
2017-10-18T03:33:46.255Z,0
2017-10-18T03:34:55.100Z,0
2017-10-18T03:36:03.948Z,0
2017-10-18T03:37:12.795Z,0
2017-10-18T03:38:21.643Z,0
2017-10-18T03:39:30.744Z,0
2017-10-18T03:40:39.588Z,0
2017-10-18T03:41:48.435Z,0
2017-10-18T03:42:57.626Z,0
2017-10-18T03:44:06.474Z,0
2017-10-18T03:45:15.472Z,0
2017-10-18T03:46:24.315Z,0
2017-10-18T03:47:33.163Z,0
2017-10-18T03:48:42.009Z,0
2017-10-18T03:49:50.858Z,0
2017-10-18T03:50:59.855Z,0
2017-10-18T03:52:08.703Z,0
2017-10-18T03:53:17.894Z,0
2017-10-18T03:54:26.742Z,0
2017-10-18T03:55:35.595Z,0
2017-10-18T03:56:44.534Z,0
2017-10-18T03:57:53.733Z,0
2017-10-18T03:59:02.580Z,0
2017-10-18T04:00:11.427Z,0
2017-10-18T04:01:20.275Z,0
2017-10-18T04:02:29.422Z,0
2017-10-18T04:03:38.273Z,0
2017-10-18T04:04:47.114Z,0
2017-10-18T04:05:55.959Z,0
2017-10-18T04:07:04.810Z,0
2017-10-18T04:08:13.908Z,0
2017-10-18T04:09:22.751Z,0
2017-10-18T04:10:31.600Z,0
2017-10-18T04:11:40.446Z,0
2017-10-18T04:12:49.292Z,0
2017-10-18T04:13:58.191Z,0
2017-10-18T04:15:07.038Z,0
2017-10-18T04:16:15.886Z,0
2017-10-18T04:17:24.732Z,0
2017-10-18T04:18:33.579Z,0
2017-10-18T04:19:42.625Z,0
2017-10-18T04:20:51.824Z,0
2017-10-18T04:22:00.668Z,0
2017-10-18T04:23:09.514Z,0
2017-10-18T04:24:18.364Z,0
2017-10-18T04:25:27.362Z,0
2017-10-18T04:26:36.208Z,0
2017-10-18T04:27:45.060Z,0
2017-10-18T04:28:53.906Z,0
2017-10-18T04:30:02.758Z,0
2017-10-18T04:31:11.905Z,0
2017-10-18T04:32:20.749Z,0
2017-10-18T04:33:29.594Z,0
2017-10-18T04:34:38.440Z,0
2017-10-18T04:35:47.288Z,0
2017-10-18T04:36:56.182Z,0
2017-10-18T04:38:05.031Z,0
2017-10-18T04:39:13.880Z,0
2017-10-18T04:40:22.730Z,0
2017-10-18T04:41:31.579Z,0
2017-10-18T04:42:40.457Z,0
2017-10-18T04:43:49.301Z,0
2017-10-18T04:44:58.149Z,0
2017-10-18T04:46:06.994Z,0
2017-10-18T04:47:15.843Z,0
2017-10-18T04:48:25.575Z,0
2017-10-18T04:49:34.423Z,0
2017-10-18T04:50:43.269Z,0
2017-10-18T04:51:52.123Z,0
2017-10-18T04:53:01.060Z,0
2017-10-18T04:54:11.185Z,0
2017-10-18T04:55:20.045Z,0
2017-10-18T04:56:28.898Z,0
2017-10-18T04:57:37.751Z,0
2017-10-18T04:58:46.600Z,0
2017-10-18T04:59:59.648Z,0
2017-10-18T05:01:18.636Z,0
2017-10-18T05:02:27.505Z,0
2017-10-18T05:03:36.361Z,0
2017-10-18T05:04:46.096Z,0
2017-10-18T05:05:56.982Z,0
2017-10-18T05:07:06.292Z,0
2017-10-18T05:08:15.293Z,0
2017-10-18T05:09:24.152Z,0
2017-10-18T05:10:33.000Z,0
2017-10-18T05:11:41.851Z,0
2017-10-18T05:12:50.701Z,0
2017-10-18T05:13:59.648Z,0
2017-10-18T05:15:08.503Z,0
2017-10-18T05:16:17.354Z,0
2017-10-18T05:17:26.233Z,0
2017-10-18T05:18:35.098Z,0
2017-10-18T05:19:44.407Z,0
2017-10-18T05:20:53.259Z,0
2017-10-18T05:22:02.125Z,0
2017-10-18T05:23:10.971Z,0
2017-10-18T05:24:19.819Z,0
2017-10-18T05:25:28.873Z,0
2017-10-18T05:26:37.719Z,0
2017-10-18T05:27:46.575Z,0
2017-10-18T05:28:55.780Z,0
2017-10-18T05:30:05.329Z,0
2017-10-18T05:31:14.477Z,0
2017-10-18T05:32:23.368Z,0
2017-10-18T05:33:32.224Z,0
2017-10-18T05:34:41.078Z,0
2017-10-18T05:35:49.965Z,0
2017-10-18T05:36:59.311Z,0
2017-10-18T05:38:08.161Z,0
2017-10-18T05:39:17.034Z,0
2017-10-18T05:40:25.932Z,0
2017-10-18T05:41:34.848Z,0
2017-10-18T05:42:43.749Z,0
2017-10-18T05:43:52.599Z,0
2017-10-18T05:45:01.456Z,0
2017-10-18T05:46:10.307Z,0
2017-10-18T05:47:19.155Z,0
2017-10-18T05:48:28.153Z,0
2017-10-18T05:49:37.019Z,0
2017-10-18T05:50:45.867Z,0
2017-10-18T05:51:54.732Z,0
2017-10-18T05:53:03.593Z,0
2017-10-18T05:54:12.655Z,0
2017-10-18T05:55:21.548Z,0
2017-10-18T05:56:30.394Z,5
2017-10-18T05:57:39.242Z,5
2017-10-18T05:58:48.095Z,5
2017-10-18T05:59:57.091Z,5
2017-10-18T06:01:05.939Z,5
2017-10-18T06:02:14.790Z,5
2017-10-18T06:03:23.641Z,5
2017-10-18T06:04:32.486Z,5
2017-10-18T06:05:41.384Z,5
2017-10-18T06:06:50.235Z,5
2017-10-18T06:07:59.084Z,10
2017-10-18T06:09:07.939Z,10
2017-10-18T06:10:16.786Z,10
2017-10-18T06:11:25.886Z,10
2017-10-18T06:12:34.734Z,10
2017-10-18T06:13:43.585Z,10
2017-10-18T06:14:52.441Z,10
2017-10-18T06:16:01.283Z,10
2017-10-18T06:17:10.533Z,10
2017-10-18T06:18:19.481Z,15
2017-10-18T06:19:28.420Z,15
2017-10-18T06:20:37.317Z,15
2017-10-18T06:21:46.243Z,15
2017-10-18T06:22:55.266Z,15
2017-10-18T06:24:04.215Z,15
2017-10-18T06:25:13.207Z,15
2017-10-18T06:26:22.418Z,15
2017-10-18T06:27:31.327Z,15
2017-10-18T06:28:40.537Z,15
2017-10-18T06:29:49.488Z,15
2017-10-18T06:30:58.346Z,20
2017-10-18T06:32:07.197Z,20
2017-10-18T06:33:16.044Z,20
2017-10-18T06:34:25.043Z,20
2017-10-18T06:35:33.894Z,20
2017-10-18T06:36:42.745Z,20
2017-10-18T06:37:51.592Z,25
2017-10-18T06:39:00.443Z,25
2017-10-18T06:40:09.297Z,25
2017-10-18T06:41:18.146Z,30
2017-10-18T06:42:27.000Z,35
2017-10-18T06:43:35.849Z,35
2017-10-18T06:44:44.697Z,35
2017-10-18T06:45:53.646Z,35
2017-10-18T06:47:02.497Z,40
2017-10-18T06:48:11.348Z,40
2017-10-18T06:49:20.200Z,40
2017-10-18T06:50:29.049Z,40
2017-10-18T06:51:38.148Z,40
2017-10-18T06:52:47.349Z,40
2017-10-18T06:53:56.197Z,40
2017-10-18T06:55:05.401Z,45
2017-10-18T06:56:14.604Z,50
2017-10-18T06:57:23.437Z,50
2017-10-18T06:58:32.286Z,55
2017-10-18T06:59:41.134Z,55
2017-10-18T07:00:49.983Z,60
2017-10-18T07:01:58.832Z,65
2017-10-18T07:03:07.731Z,65
2017-10-18T07:04:16.582Z,70
2017-10-18T07:05:25.430Z,75
2017-10-18T07:06:34.279Z,75
2017-10-18T07:07:43.125Z,75
2017-10-18T07:08:52.074Z,75
2017-10-18T07:10:00.921Z,80
2017-10-18T07:11:09.782Z,80
2017-10-18T07:12:18.632Z,85
2017-10-18T07:13:27.483Z,80
2017-10-18T07:14:36.535Z,85
2017-10-18T07:15:45.384Z,85
2017-10-18T07:16:54.232Z,85
2017-10-18T07:18:03.090Z,85
2017-10-18T07:19:11.934Z,85
2017-10-18T07:20:20.982Z,85
2017-10-18T07:21:29.830Z,90
2017-10-18T07:22:38.679Z,90
2017-10-18T07:23:47.529Z,95
2017-10-18T07:24:56.377Z,95
2017-10-18T07:26:05.426Z,100
2017-10-18T07:27:14.624Z,105
2017-10-18T07:28:23.469Z,105
2017-10-18T07:29:32.318Z,110
2017-10-18T07:30:41.165Z,110
2017-10-18T07:31:50.016Z,115
2017-10-18T07:32:58.865Z,120
2017-10-18T07:34:07.717Z,120
2017-10-18T07:35:16.568Z,125
2017-10-18T07:36:25.420Z,120
2017-10-18T07:37:34.469Z,125
2017-10-18T07:38:43.318Z,125
2017-10-18T07:39:52.167Z,125
2017-10-18T07:41:01.034Z,120
2017-10-18T07:42:09.863Z,120
2017-10-18T07:43:18.865Z,115
2017-10-18T07:44:27.716Z,115
2017-10-18T07:45:36.572Z,115
2017-10-18T07:46:45.773Z,120
2017-10-18T07:47:54.620Z,115
2017-10-18T07:49:04.044Z,115
2017-10-18T07:50:12.889Z,120
2017-10-18T07:51:21.739Z,125
2017-10-18T07:52:30.592Z,125
2017-10-18T07:53:39.451Z,130
2017-10-18T07:54:48.546Z,130
2017-10-18T07:55:57.395Z,135
2017-10-18T07:57:06.245Z,135
2017-10-18T07:58:15.093Z,130
2017-10-18T07:59:23.943Z,130
2017-10-18T08:00:32.944Z,135
2017-10-18T08:01:41.793Z,135
2017-10-18T08:02:50.647Z,140
2017-10-18T08:03:59.497Z,140
2017-10-18T08:05:08.346Z,140
2017-10-18T08:06:17.395Z,140
2017-10-18T08:07:26.246Z,140
2017-10-18T08:08:35.100Z,140
2017-10-18T08:09:43.951Z,140
2017-10-18T08:10:52.802Z,140
2017-10-18T08:12:01.800Z,140
2017-10-18T08:13:10.646Z,140
2017-10-18T08:14:19.493Z,140
2017-10-18T08:15:28.342Z,140
2017-10-18T08:16:37.192Z,140
2017-10-18T08:17:46.095Z,140
2017-10-18T08:18:54.941Z,145
2017-10-18T08:20:03.792Z,145
2017-10-18T08:21:12.637Z,150
2017-10-18T08:22:21.492Z,150
2017-10-18T08:23:30.356Z,150
2017-10-18T08:24:39.208Z,155
2017-10-18T08:25:48.061Z,155
2017-10-18T08:26:56.924Z,160
2017-10-18T08:28:06.120Z,160
2017-10-18T08:29:15.120Z,160
2017-10-18T08:30:23.972Z,165
2017-10-18T08:31:32.822Z,165
2017-10-18T08:32:41.670Z,165
2017-10-18T08:33:50.521Z,165
2017-10-18T08:34:59.773Z,170
2017-10-18T08:36:08.624Z,170
2017-10-18T08:37:17.475Z,170
2017-10-18T08:38:26.670Z,170
2017-10-18T08:39:35.522Z,170
2017-10-18T08:40:44.523Z,175
2017-10-18T08:41:53.374Z,175
2017-10-18T08:43:02.225Z,180
2017-10-18T08:44:11.075Z,185
2017-10-18T08:45:19.952Z,190
2017-10-18T08:46:28.974Z,180
2017-10-18T08:47:37.824Z,180
2017-10-18T08:48:46.680Z,180
2017-10-18T08:49:55.525Z,180
2017-10-18T08:51:04.374Z,185
2017-10-18T08:52:13.325Z,185
2017-10-18T08:53:22.176Z,190
2017-10-18T08:54:31.031Z,190
2017-10-18T08:55:39.887Z,195
2017-10-18T08:56:49.095Z,200
2017-10-18T08:57:58.087Z,200
2017-10-18T08:59:06.935Z,200
2017-10-18T09:00:15.785Z,200
2017-10-18T09:01:24.632Z,195
2017-10-18T09:02:33.487Z,195
2017-10-18T09:03:42.384Z,195
2017-10-18T09:04:51.239Z,190
2017-10-18T09:06:00.088Z,195
2017-10-18T09:07:08.941Z,200
2017-10-18T09:08:17.797Z,205
2017-10-18T09:09:27.092Z,205
2017-10-18T09:10:35.942Z,205
2017-10-18T09:11:44.798Z,205
2017-10-18T09:12:53.651Z,210
2017-10-18T09:14:02.850Z,210
2017-10-18T09:15:11.847Z,210
2017-10-18T09:16:20.697Z,210
2017-10-18T09:17:29.547Z,215
2017-10-18T09:18:38.399Z,220
2017-10-18T09:19:47.251Z,220
2017-10-18T09:20:56.402Z,220
2017-10-18T09:22:05.611Z,225
2017-10-18T09:23:14.461Z,225
2017-10-18T09:24:23.313Z,225
2017-10-18T09:25:32.510Z,230
2017-10-18T09:26:41.407Z,225
2017-10-18T09:27:50.256Z,225
2017-10-18T09:28:59.108Z,225
2017-10-18T09:30:07.957Z,225
2017-10-18T09:31:16.808Z,225
2017-10-18T09:32:25.858Z,225
2017-10-18T09:33:34.713Z,225
2017-10-18T09:34:43.564Z,230
2017-10-18T09:35:52.415Z,230
2017-10-18T09:37:01.263Z,230
2017-10-18T09:38:10.116Z,230
2017-10-18T09:39:18.968Z,230
2017-10-18T09:40:27.819Z,230
2017-10-18T09:41:36.671Z,230
2017-10-18T09:42:45.518Z,225
2017-10-18T09:43:54.720Z,235
2017-10-18T09:45:03.571Z,240
2017-10-18T09:46:12.426Z,245
2017-10-18T09:47:21.272Z,250
2017-10-18T09:48:30.125Z,255
2017-10-18T09:49:39.380Z,255
2017-10-18T09:50:48.231Z,255
2017-10-18T09:51:57.083Z,260
2017-10-18T09:53:05.936Z,260
2017-10-18T09:54:14.785Z,260
2017-10-18T09:55:23.636Z,260
2017-10-18T09:56:32.487Z,260
2017-10-18T09:57:41.335Z,260
2017-10-18T09:58:50.188Z,260
2017-10-18T09:59:59.036Z,260
2017-10-18T10:01:08.037Z,260
2017-10-18T10:02:16.900Z,260
2017-10-18T10:03:25.753Z,265
2017-10-18T10:04:34.605Z,265
2017-10-18T10:05:43.457Z,270
2017-10-18T10:06:52.460Z,270
2017-10-18T10:08:01.313Z,270
2017-10-18T10:09:10.166Z,270
2017-10-18T10:10:19.018Z,275
2017-10-18T10:11:28.239Z,275
2017-10-18T10:12:37.116Z,275
2017-10-18T10:13:45.961Z,275
2017-10-18T10:14:54.811Z,275
2017-10-18T10:16:03.663Z,275
2017-10-18T10:17:12.517Z,280
2017-10-18T10:18:21.619Z,280
2017-10-18T10:19:30.469Z,285
2017-10-18T10:20:39.320Z,285
2017-10-18T10:21:48.531Z,285
2017-10-18T10:22:57.747Z,290
2017-10-18T10:24:06.642Z,295
2017-10-18T10:25:15.494Z,290
2017-10-18T10:26:24.355Z,295
2017-10-18T10:27:33.199Z,295
2017-10-18T10:28:42.049Z,295
2017-10-18T10:29:51.050Z,295
2017-10-18T10:30:59.904Z,295
2017-10-18T10:32:08.754Z,295
2017-10-18T10:33:17.606Z,300
2017-10-18T10:34:26.464Z,300
2017-10-18T10:35:35.562Z,305
2017-10-18T10:36:44.422Z,310
2017-10-18T10:37:53.271Z,305
2017-10-18T10:39:02.121Z,305
2017-10-18T10:40:10.973Z,305
2017-10-18T10:41:19.978Z,305
2017-10-18T10:42:28.833Z,305
2017-10-18T10:43:38.035Z,300
2017-10-18T10:44:46.885Z,300
2017-10-18T10:45:56.084Z,305
2017-10-18T10:47:05.038Z,305
2017-10-18T10:48:13.892Z,310
2017-10-18T10:49:22.742Z,310
2017-10-18T10:50:31.595Z,315
2017-10-18T10:51:40.446Z,320
2017-10-18T10:52:49.302Z,320
2017-10-18T10:53:58.153Z,325
2017-10-18T10:55:07.005Z,325
2017-10-18T10:56:15.855Z,325
2017-10-18T10:57:24.709Z,330
2017-10-18T10:58:33.810Z,330
2017-10-18T10:59:42.662Z,330
2017-10-18T11:00:51.514Z,330
2017-10-18T11:02:00.368Z,335
2017-10-18T11:03:09.219Z,330
2017-10-18T11:04:18.470Z,340
2017-10-18T11:05:27.325Z,335
2017-10-18T11:06:36.176Z,340
2017-10-18T11:07:45.032Z,345
2017-10-18T11:08:53.887Z,345
2017-10-18T11:10:02.997Z,350
2017-10-18T11:11:11.850Z,350
2017-10-18T11:12:20.695Z,355
2017-10-18T11:13:29.548Z,355
2017-10-18T11:14:38.403Z,355
2017-10-18T11:15:47.505Z,355
2017-10-18T11:16:56.361Z,355
2017-10-18T11:18:05.216Z,355
2017-10-18T11:19:14.068Z,355
2017-10-18T11:20:22.919Z,355
2017-10-18T11:21:32.076Z,355
2017-10-18T11:22:40.930Z,355
2017-10-18T11:23:49.781Z,360
2017-10-18T11:24:58.632Z,355
2017-10-18T11:26:07.485Z,355
2017-10-18T11:27:16.986Z,355
2017-10-18T11:28:25.838Z,360
2017-10-18T11:29:34.691Z,360
2017-10-18T11:30:43.544Z,360
2017-10-18T11:31:52.397Z,365
2017-10-18T11:33:01.354Z,365
2017-10-18T11:34:10.211Z,370
2017-10-18T11:35:19.064Z,370
2017-10-18T11:36:27.916Z,375
2017-10-18T11:37:36.774Z,375
2017-10-18T11:38:45.928Z,375
2017-10-18T11:39:54.780Z,380
2017-10-18T11:41:03.636Z,380
2017-10-18T11:42:12.490Z,390
2017-10-18T11:43:21.344Z,575
2017-10-18T11:44:30.202Z,650
2017-10-18T11:45:39.053Z,525
2017-10-18T11:46:47.909Z,430
2017-10-18T11:47:56.764Z,495
2017-10-18T11:49:05.616Z,525
2017-10-18T11:50:14.522Z,600
2017-10-18T11:51:23.377Z,640
2017-10-18T11:52:32.227Z,580
2017-10-18T11:53:41.080Z,585
2017-10-18T11:54:49.929Z,635
2017-10-18T11:55:59.086Z,470
2017-10-18T11:57:07.939Z,450
2017-10-18T11:58:16.795Z,490
2017-10-18T11:59:25.669Z,545
2017-10-18T12:00:34.849Z,515
2017-10-18T12:01:43.699Z,580
2017-10-18T12:02:52.555Z,590
2017-10-18T12:04:01.410Z,530
2017-10-18T12:05:10.264Z,570
2017-10-18T12:06:19.116Z,595
2017-10-18T12:07:28.269Z,580
2017-10-18T12:08:37.474Z,655
2017-10-18T12:09:46.327Z,475
2017-10-18T12:10:55.188Z,455
2017-10-18T12:12:04.049Z,450
2017-10-18T12:13:13.045Z,450
2017-10-18T12:14:21.904Z,475
2017-10-18T12:15:31.099Z,535
2017-10-18T12:16:39.958Z,585
2017-10-18T12:17:48.811Z,515
2017-10-18T12:18:57.967Z,490
2017-10-18T12:20:06.922Z,575
2017-10-18T12:21:15.777Z,565
2017-10-18T12:22:24.631Z,530
2017-10-18T12:23:33.495Z,575
2017-10-18T12:24:42.358Z,595
2017-10-18T12:25:51.215Z,495
2017-10-18T12:27:00.069Z,450
2017-10-18T12:28:08.925Z,450
2017-10-18T12:29:17.786Z,540
2017-10-18T12:30:26.792Z,625
2017-10-18T12:31:35.650Z,630
2017-10-18T12:32:44.516Z,730
2017-10-18T12:33:53.369Z,715
2017-10-18T12:35:02.226Z,665
2017-10-18T12:36:11.133Z,595
2017-10-18T12:37:19.989Z,560
2017-10-18T12:38:28.843Z,620
2017-10-18T12:39:37.699Z,710
2017-10-18T12:40:46.551Z,605
2017-10-18T12:41:55.456Z,530
2017-10-18T12:43:04.309Z,590
2017-10-18T12:44:13.166Z,670
2017-10-18T12:45:22.026Z,545
2017-10-18T12:46:30.880Z,605
2017-10-18T12:47:39.836Z,880
2017-10-18T12:48:48.699Z,905
2017-10-18T12:49:57.902Z,665
2017-10-18T12:51:07.113Z,640
2017-10-18T12:52:15.966Z,660
2017-10-18T12:53:25.021Z,580
2017-10-18T12:54:33.876Z,670
2017-10-18T12:55:42.728Z,675
2017-10-18T12:56:51.584Z,605
2017-10-18T12:58:00.440Z,775
2017-10-18T12:59:09.547Z,780
2017-10-18T13:00:18.759Z,615
2017-10-18T13:01:27.618Z,600
2017-10-18T13:02:36.471Z,710
2017-10-18T13:03:45.328Z,540
2017-10-18T13:04:54.734Z,475
2017-10-18T13:06:03.590Z,500
2017-10-18T13:07:12.451Z,555
2017-10-18T13:08:21.305Z,595
2017-10-18T13:09:30.160Z,535
2017-10-18T13:10:39.415Z,470
2017-10-18T13:11:48.272Z,470
2017-10-18T13:12:57.128Z,580
2017-10-18T13:14:06.330Z,750
2017-10-18T13:15:15.186Z,730
2017-10-18T13:16:24.141Z,695
2017-10-18T13:17:33.346Z,710
2017-10-18T13:18:42.196Z,605
2017-10-18T13:19:51.053Z,530
2017-10-18T13:20:59.909Z,550
2017-10-18T13:22:08.918Z,615
2017-10-18T13:23:17.773Z,765
2017-10-18T13:24:26.629Z,590
2017-10-18T13:25:35.829Z,485
2017-10-18T13:26:44.682Z,510
2017-10-18T13:27:53.641Z,570
2017-10-18T13:29:02.495Z,550
2017-10-18T13:30:11.352Z,610
2017-10-18T13:31:20.208Z,570
2017-10-18T13:32:29.061Z,565
2017-10-18T13:33:37.966Z,495
2017-10-18T13:34:46.822Z,455
2017-10-18T13:35:55.684Z,465
2017-10-18T13:37:04.557Z,465
2017-10-18T13:38:13.397Z,460
2017-10-18T13:39:22.456Z,515
2017-10-18T13:40:31.310Z,515
2017-10-18T13:41:40.171Z,565
2017-10-18T13:42:49.023Z,515
2017-10-18T13:43:57.880Z,460
2017-10-18T13:45:06.884Z,475
2017-10-18T13:46:15.738Z,510
2017-10-18T13:47:24.645Z,500
2017-10-18T13:48:33.502Z,530
2017-10-18T13:49:42.360Z,535
2017-10-18T13:50:51.416Z,510
2017-10-18T13:52:00.266Z,510
2017-10-18T13:53:09.123Z,505
2017-10-18T13:54:17.982Z,475
2017-10-18T13:55:26.841Z,455
2017-10-18T13:56:35.797Z,495
2017-10-18T13:57:44.653Z,535
2017-10-18T13:58:53.508Z,495
2017-10-18T14:00:02.364Z,455
2017-10-18T14:01:11.224Z,480
2017-10-18T14:02:20.227Z,475
2017-10-18T14:03:29.080Z,430
2017-10-18T14:04:37.936Z,420
2017-10-18T14:05:47.132Z,395
2017-10-18T14:06:55.989Z,390
2017-10-18T14:08:05.197Z,390
2017-10-18T14:09:14.055Z,395
2017-10-18T14:10:22.908Z,375
2017-10-18T14:11:31.764Z,360
2017-10-18T14:12:40.620Z,335
2017-10-18T14:13:49.627Z,310
2017-10-18T14:14:58.827Z,295
2017-10-18T14:16:07.994Z,285
2017-10-18T14:17:16.849Z,280
2017-10-18T14:18:25.702Z,275
2017-10-18T14:19:34.557Z,270
2017-10-18T14:20:43.414Z,265
2017-10-18T14:21:52.266Z,255
2017-10-18T14:23:01.125Z,250
2017-10-18T14:24:09.981Z,230
2017-10-18T14:25:18.835Z,220
2017-10-18T14:26:27.690Z,210
2017-10-18T14:27:36.542Z,205
2017-10-18T14:28:45.398Z,200
2017-10-18T14:29:54.257Z,200
2017-10-18T14:31:03.112Z,205
2017-10-18T14:32:11.972Z,205
2017-10-18T14:33:20.831Z,200
2017-10-18T14:34:29.686Z,190
2017-10-18T14:35:38.540Z,175
2017-10-18T14:36:47.693Z,165
2017-10-18T14:37:56.618Z,160
2017-10-18T14:39:05.951Z,155
2017-10-18T14:40:14.921Z,155
2017-10-18T14:41:24.233Z,160
2017-10-18T14:42:33.435Z,160
2017-10-18T14:43:42.340Z,165
2017-10-18T14:44:51.443Z,165
2017-10-18T14:46:00.487Z,165
2017-10-18T14:47:09.824Z,165
2017-10-18T14:48:18.928Z,170
2017-10-18T14:49:28.247Z,170
2017-10-18T14:50:37.583Z,170
2017-10-18T14:51:46.590Z,165
2017-10-18T14:52:55.819Z,165
2017-10-18T14:54:05.340Z,165
2017-10-18T14:55:14.451Z,165
2017-10-18T14:56:24.458Z,165
2017-10-18T14:57:33.330Z,160
2017-10-18T14:58:42.231Z,160
2017-10-18T14:59:51.099Z,160
2017-10-18T15:00:59.969Z,155
2017-10-18T15:02:09.031Z,150
2017-10-18T15:03:17.886Z,140
2017-10-18T15:04:27.084Z,130
2017-10-18T15:05:35.983Z,125
2017-10-18T15:06:44.841Z,115
2017-10-18T15:07:53.938Z,105
2017-10-18T15:09:02.879Z,100
2017-10-18T15:10:11.737Z,95
2017-10-18T15:11:20.589Z,95
2017-10-18T15:12:29.748Z,90
2017-10-18T15:13:38.953Z,90
2017-10-18T15:14:47.821Z,85
2017-10-18T15:15:56.676Z,85
2017-10-18T15:17:05.532Z,80
2017-10-18T15:18:14.390Z,80
2017-10-18T15:19:23.243Z,80
2017-10-18T15:20:32.097Z,80
2017-10-18T15:21:40.950Z,80
2017-10-18T15:22:49.811Z,80
2017-10-18T15:23:58.662Z,80
2017-10-18T15:25:07.823Z,80
2017-10-18T15:26:16.772Z,80
2017-10-18T15:27:26.422Z,80
2017-10-18T15:28:35.529Z,80
2017-10-18T15:29:44.753Z,80
2017-10-18T15:30:53.853Z,80
2017-10-18T15:32:02.977Z,85
2017-10-18T15:33:12.255Z,85
2017-10-18T15:34:21.158Z,90
2017-10-18T15:35:30.017Z,90
2017-10-18T15:36:38.863Z,95
2017-10-18T15:37:47.715Z,95
2017-10-18T15:38:56.626Z,95
2017-10-18T15:40:05.482Z,95
2017-10-18T15:41:14.336Z,90
2017-10-18T15:42:23.549Z,80
2017-10-18T15:43:32.399Z,75
2017-10-18T15:44:41.451Z,75
2017-10-18T15:45:50.657Z,75
2017-10-18T15:46:59.512Z,70
2017-10-18T15:48:08.366Z,65
2017-10-18T15:49:17.220Z,60
2017-10-18T15:50:26.174Z,60
2017-10-18T15:51:35.026Z,55
2017-10-18T15:52:44.227Z,55
2017-10-18T15:53:53.080Z,55
2017-10-18T15:55:01.936Z,50
2017-10-18T15:56:10.893Z,50
2017-10-18T15:57:19.742Z,45
2017-10-18T15:58:28.598Z,40
2017-10-18T15:59:37.452Z,40
2017-10-18T16:00:46.310Z,35
2017-10-18T16:01:55.413Z,35
2017-10-18T16:03:04.264Z,30
2017-10-18T16:04:13.117Z,30
2017-10-18T16:05:21.972Z,30
2017-10-18T16:06:30.815Z,25
2017-10-18T16:07:39.668Z,25
2017-10-18T16:08:48.519Z,20
2017-10-18T16:09:57.374Z,20
2017-10-18T16:11:06.225Z,20
2017-10-18T16:12:15.088Z,15
2017-10-18T16:13:24.141Z,15
2017-10-18T16:14:37.500Z,15
2017-10-18T16:15:50.039Z,15
2017-10-18T16:17:02.273Z,10
2017-10-18T16:18:11.126Z,10
2017-10-18T16:19:20.130Z,10